createdAt,value
2022-08-10T00:00:20.712Z,99339.81
2022-08-10T00:01:56.081Z,99343.13
2022-08-10T00:03:29.446Z,99338.34
2022-08-10T00:05:01.843Z,99341.78
2022-08-10T00:06:35.174Z,99338.09
2022-08-10T00:08:07.743Z,99339.78
2022-08-10T00:09:50.984Z,99336.38
2022-08-10T00:11:24.846Z,99332.22
2022-08-10T00:12:57.424Z,99329.28
2022-08-10T00:14:30.876Z,99323.66
2022-08-10T00:16:04.915Z,99332.72
2022-08-10T00:17:38.705Z,99338.34
2022-08-10T00:19:12.012Z,99334.06
2022-08-10T00:20:45.982Z,99339.66
2022-08-10T00:22:19.499Z,99326.84
2022-08-10T00:23:52.848Z,99333.81
2022-08-10T00:25:26.177Z,99333.28
2022-08-10T00:27:58.710Z,99333.56
2022-08-10T00:28:53.007Z,99331.69
2022-08-10T00:30:25.330Z,99340.38
2022-08-10T00:31:59.725Z,99332.03
2022-08-10T00:33:34.494Z,99339.56
2022-08-10T00:35:08.519Z,99332.09
2022-08-10T00:36:41.969Z,99336.72
2022-08-10T00:38:15.371Z,99332.56
2022-08-10T00:39:48.836Z,99339.88
2022-08-10T00:41:21.271Z,99334.50
2022-08-10T00:42:57.068Z,99346.75
2022-08-10T00:44:30.449Z,99352.13
2022-08-10T00:46:04.217Z,99345.03
2022-08-10T00:47:37.850Z,99340.97
2022-08-10T00:49:12.652Z,99330.44
2022-08-10T00:50:46.270Z,99336.91
2022-08-10T00:52:20.237Z,99340.47
2022-08-10T00:53:53.589Z,99338.88
2022-08-10T00:55:28.127Z,99340.38
2022-08-10T00:57:16.152Z,99339.63
2022-08-10T00:58:51.535Z,99344.25
2022-08-10T01:00:25.071Z,99338.88
2022-08-10T01:02:08.996Z,99338.63
2022-08-10T01:04:57.502Z,99339.81
2022-08-10T01:05:51.214Z,99343.69
2022-08-10T01:07:45.671Z,99336.72
2022-08-10T01:09:25.180Z,99343.06
2022-08-10T01:11:07.042Z,99335.34
2022-08-10T01:13:06.791Z,99337.31
2022-08-10T01:14:54.286Z,99347.91
2022-08-10T01:16:33.341Z,99350.16
2022-08-10T01:18:14.029Z,99350.16
2022-08-10T01:19:58.564Z,99350.91
2022-08-10T01:22:14.138Z,99356.28
2022-08-10T01:24:05.705Z,99355.63
2022-08-10T01:26:11.615Z,99362.53
2022-08-10T01:27:56.823Z,99370.50
2022-08-10T01:29:55.008Z,99373.81
2022-08-10T01:31:35.043Z,99376.69
2022-08-10T01:33:13.200Z,99374.78
2022-08-10T01:34:53.201Z,99369.41
2022-08-10T01:36:32.277Z,99369.22
2022-08-10T01:38:10.331Z,99365.53
2022-08-10T01:39:47.534Z,99357.38
2022-08-10T01:41:25.060Z,99364.47
2022-08-10T01:43:08.290Z,99363.59
2022-08-10T01:44:49.754Z,99359.94
2022-08-10T01:46:25.511Z,99364.47
2022-08-10T01:48:18.996Z,99363.59
2022-08-10T01:49:56.314Z,99360.91
2022-08-10T01:51:34.473Z,99364.91
2022-08-10T01:53:10.828Z,99364.47
2022-08-10T01:54:46.015Z,99375.53
2022-08-10T01:56:21.237Z,99376.84
2022-08-10T01:57:55.965Z,99380.72
2022-08-10T01:59:33.279Z,99380.00
2022-08-10T02:01:10.952Z,99371.28
2022-08-10T02:02:51.849Z,99376.75
2022-08-10T02:04:29.121Z,99375.06
2022-08-10T02:06:03.845Z,99377.94
2022-08-10T02:07:38.855Z,99379.16
2022-08-10T02:09:14.806Z,99376.69
2022-08-10T02:10:48.484Z,99370.59
2022-08-10T02:12:27.938Z,99374.47
2022-08-10T02:14:02.242Z,99374.25
2022-08-10T02:15:38.341Z,99362.84
2022-08-10T02:18:00.082Z,99371.22
2022-08-10T02:19:31.230Z,99361.59
2022-08-10T02:21:06.244Z,99382.63
2022-08-10T02:22:41.755Z,99376.75
2022-08-10T02:24:17.427Z,99379.84
2022-08-10T02:25:53.398Z,99380.28
2022-08-10T02:27:28.186Z,99379.63
2022-08-10T02:29:02.153Z,99378.97
2022-08-10T02:30:38.651Z,99377.91
2022-08-10T02:32:12.711Z,99369.31
2022-08-10T02:33:59.500Z,99382.38
2022-08-10T02:35:54.743Z,99388.81
2022-08-10T02:37:27.905Z,99393.53
2022-08-10T02:39:04.133Z,99386.53
2022-08-10T02:42:18.161Z,99384.72
2022-08-10T02:45:21.102Z,99381.53
2022-08-10T02:45:22.070Z,99381.09
2022-08-10T02:46:40.841Z,99393.53
2022-08-10T02:48:19.935Z,99397.16
2022-08-10T02:50:00.900Z,99391.69
2022-08-10T02:52:06.407Z,99389.03
2022-08-10T02:53:55.070Z,99392.25
2022-08-10T02:55:36.893Z,99398.41
2022-08-10T02:57:17.277Z,99413.81
2022-08-10T02:58:57.251Z,99391.75
2022-08-10T03:00:31.761Z,99403.50
2022-08-10T03:02:08.043Z,99412.59
2022-08-10T03:03:48.863Z,99411.53
2022-08-10T03:05:23.872Z,99414.34
2022-08-10T03:07:01.651Z,99417.88
2022-08-10T03:08:39.924Z,99415.00
2022-08-10T03:10:17.606Z,99422.63
2022-08-10T03:12:34.926Z,99424.34
2022-08-10T03:13:59.607Z,99417.72
2022-08-10T03:15:35.654Z,99411.28
2022-08-10T03:17:11.323Z,99409.13
2022-08-10T03:18:45.518Z,99418.59
2022-08-10T03:20:36.939Z,99419.25
2022-08-10T03:22:15.578Z,99424.41
2022-08-10T03:23:51.097Z,99421.53
2022-08-10T03:25:27.102Z,99426.88
2022-08-10T03:27:01.045Z,99429.56
2022-08-10T03:28:36.214Z,99434.69
2022-08-10T03:30:30.027Z,99437.38
2022-08-10T03:32:06.942Z,99445.41
2022-08-10T03:33:42.880Z,99441.91
2022-08-10T03:35:16.151Z,99442.84
2022-08-10T03:36:49.899Z,99448.53
2022-08-10T03:38:24.581Z,99451.22
2022-08-10T03:39:58.365Z,99463.00
2022-08-10T03:41:36.677Z,99460.63
2022-08-10T03:43:12.856Z,99464.69
2022-08-10T03:44:50.411Z,99465.75
2022-08-10T03:46:27.419Z,99467.56
2022-08-10T03:48:02.141Z,99468.31
2022-08-10T03:49:38.023Z,99465.53
2022-08-10T03:51:12.268Z,99464.47
2022-08-10T03:52:46.517Z,99462.72
2022-08-10T03:54:23.124Z,99463.59
2022-08-10T03:56:29.790Z,99471.53
2022-08-10T03:57:49.928Z,99470.38
2022-08-10T03:59:23.641Z,99475.44
2022-08-10T04:00:57.196Z,99466.72
2022-08-10T04:02:43.629Z,99477.69
2022-08-10T04:04:24.679Z,99476.72
2022-08-10T04:05:59.699Z,99476.59
2022-08-10T04:07:32.994Z,99477.53
2022-08-10T04:09:05.546Z,99476.91
2022-08-10T04:10:40.490Z,99485.03
2022-08-10T04:12:13.966Z,99476.72
2022-08-10T04:13:47.205Z,99488.16
2022-08-10T04:15:20.474Z,99478.22
2022-08-10T04:16:52.990Z,99497.31
2022-08-10T04:18:26.245Z,99496.91
2022-08-10T04:20:00.846Z,99495.41
2022-08-10T04:21:40.186Z,99490.31
2022-08-10T04:23:17.595Z,99484.34
2022-08-10T04:24:55.198Z,99480.28
2022-08-10T04:26:30.049Z,99481.38
2022-08-10T04:28:03.678Z,99480.91
2022-08-10T04:29:37.700Z,99482.41
2022-08-10T04:31:14.129Z,99484.69
2022-08-10T04:32:50.174Z,99487.78
2022-08-10T04:34:25.663Z,99479.44
2022-08-10T04:35:59.777Z,99488.78
2022-08-10T04:37:37.386Z,99480.50
2022-08-10T04:39:22.163Z,99484.59
2022-08-10T04:40:56.123Z,99495.72
2022-08-10T04:42:31.988Z,99493.56
2022-08-10T04:44:05.591Z,99493.34
2022-08-10T04:45:48.613Z,99495.06
2022-08-10T04:47:51.260Z,99493.88
2022-08-10T04:49:55.591Z,99497.88
2022-08-10T04:51:16.017Z,99500.91
2022-08-10T04:52:51.664Z,99499.81
2022-08-10T04:54:25.459Z,99484.09
2022-08-10T04:56:03.162Z,99495.69
2022-08-10T04:57:37.852Z,99495.00
2022-08-10T04:59:12.895Z,99483.16
2022-08-10T05:00:46.413Z,99492.81
2022-08-10T05:02:29.206Z,99489.16
2022-08-10T05:04:35.362Z,99488.09
2022-08-10T05:05:59.082Z,99487.66
2022-08-10T05:07:40.206Z,99496.69
2022-08-10T05:09:27.316Z,99494.06
2022-08-10T05:11:00.958Z,99494.91
2022-08-10T05:12:36.248Z,99500.97
2022-08-10T05:14:11.892Z,99503.03
2022-08-10T05:15:46.028Z,99500.66
2022-08-10T05:17:18.577Z,99489.63
2022-08-10T05:18:52.124Z,99493.56
2022-08-10T05:20:25.392Z,99492.84
2022-08-10T05:22:04.544Z,99494.06
2022-08-10T05:23:38.524Z,99499.69
2022-08-10T05:25:13.909Z,99499.78
2022-08-10T05:26:59.442Z,99498.72
2022-08-10T05:28:40.630Z,99489.78
2022-08-10T05:30:16.931Z,99494.00
2022-08-10T05:31:51.048Z,99496.38
2022-08-10T05:33:24.269Z,99489.88
2022-08-10T05:34:58.119Z,99479.72
2022-08-10T05:36:31.904Z,99467.34
2022-08-10T05:38:11.847Z,99462.34
2022-08-10T05:39:50.566Z,99452.63
2022-08-10T05:41:24.779Z,99454.09
2022-08-10T05:42:57.261Z,99465.19
2022-08-10T05:44:31.340Z,99450.59
2022-08-10T05:46:18.904Z,99457.97
2022-08-10T05:48:41.561Z,99455.72
2022-08-10T05:49:49.062Z,99455.41
2022-08-10T05:51:23.028Z,99446.91
2022-08-10T05:52:56.555Z,99453.66
2022-08-10T05:54:30.162Z,99440.31
2022-08-10T05:56:04.436Z,99449.84
2022-08-10T05:57:37.814Z,99450.56
2022-08-10T05:59:12.150Z,99436.25
2022-08-10T06:00:50.064Z,99442.50
2022-08-10T06:02:32.109Z,99438.75
2022-08-10T06:04:09.616Z,99435.81
2022-08-10T06:05:46.331Z,99443.81
2022-08-10T06:07:22.101Z,99437.72
2022-08-10T06:08:56.976Z,99435.34
2022-08-10T06:10:33.188Z,99432.81
2022-08-10T06:12:27.718Z,99426.56
2022-08-10T06:14:22.780Z,99423.75
2022-08-10T06:16:04.496Z,99424.56
2022-08-10T06:17:40.538Z,99429.97
2022-08-10T06:19:14.940Z,99424.50
2022-08-10T06:20:49.084Z,99418.34
2022-08-10T06:22:22.575Z,99425.97
2022-08-10T06:24:00.651Z,99416.25
2022-08-10T06:27:34.324Z,99405.16
2022-08-10T06:29:11.349Z,99412.75
2022-08-10T06:30:46.721Z,99402.19
2022-08-10T06:32:25.491Z,99404.75
2022-08-10T06:34:01.771Z,99398.19
2022-08-10T06:35:37.255Z,99391.97
2022-08-10T06:37:11.960Z,99389.81
2022-08-10T06:38:47.558Z,99395.69
2022-08-10T06:40:21.356Z,99394.41
2022-08-10T06:42:16.352Z,99389.59
2022-08-10T06:43:58.744Z,99385.00
2022-08-10T06:45:38.053Z,99380.09
2022-08-10T06:47:13.217Z,99386.44
2022-08-10T06:49:01.215Z,99385.50
2022-08-10T06:50:59.125Z,99388.38
2022-08-10T06:52:34.073Z,99381.41
2022-08-10T06:54:10.381Z,99384.19
2022-08-10T06:55:55.163Z,99383.41
2022-08-10T06:57:33.806Z,99380.44
2022-08-10T06:59:13.402Z,99363.91
2022-08-10T07:00:58.181Z,99380.13
2022-08-10T07:02:38.076Z,99378.78
2022-08-10T07:04:31.977Z,99380.78
2022-08-10T07:06:08.975Z,99380.72
2022-08-10T07:07:45.561Z,99382.25
2022-08-10T07:09:20.879Z,99381.41
2022-08-10T07:10:55.769Z,99382.94
2022-08-10T07:12:30.756Z,99371.22
2022-08-10T07:14:15.288Z,99379.53
2022-08-10T07:15:58.084Z,99389.91
2022-08-10T07:17:39.502Z,99376.06
2022-08-10T07:19:15.799Z,99384.69
2022-08-10T07:20:51.088Z,99373.81
2022-08-10T07:23:27.431Z,99379.94
2022-08-10T07:24:22.365Z,99377.47
2022-08-10T07:25:57.973Z,99386.59
2022-08-10T07:27:39.178Z,99378.22
2022-08-10T07:29:53.220Z,99378.66
2022-08-10T07:31:54.438Z,99377.28
2022-08-10T07:33:23.419Z,99379.59
2022-08-10T07:34:59.570Z,99378.78
2022-08-10T07:36:33.993Z,99387.84
2022-08-10T07:38:08.775Z,99378.25
2022-08-10T07:39:58.253Z,99382.31
2022-08-10T07:41:41.280Z,99382.94
2022-08-10T07:43:17.384Z,99384.28
2022-08-10T07:44:51.619Z,99382.09
2022-08-10T07:46:28.260Z,99391.66
2022-08-10T07:48:07.690Z,99386.59
2022-08-10T07:49:43.557Z,99384.34
2022-08-10T07:51:21.079Z,99390.38
2022-08-10T07:53:01.413Z,99388.59
2022-08-10T07:54:41.566Z,99397.13
2022-08-10T07:56:45.432Z,99398.41
2022-08-10T07:58:12.725Z,99402.06
2022-08-10T07:59:49.773Z,99404.78
2022-08-10T08:01:29.040Z,99403.75
2022-08-10T08:03:07.314Z,99401.47
2022-08-10T08:04:42.088Z,99402.88
2022-08-10T08:06:17.869Z,99405.69
2022-08-10T08:07:53.195Z,99403.97
2022-08-10T08:09:28.106Z,99405.16
2022-08-10T08:11:02.005Z,99402.44
2022-08-10T08:12:38.369Z,99406.56
2022-08-10T08:14:14.126Z,99396.03
2022-08-10T08:16:17.532Z,99401.47
2022-08-10T08:17:42.725Z,99392.31
2022-08-10T08:19:37.723Z,99402.53
2022-08-10T08:24:02.115Z,99396.97
2022-08-10T08:24:04.353Z,99400.38
2022-08-10T08:25:01.599Z,99404.75
2022-08-10T08:26:36.029Z,99409.81
2022-08-10T08:28:10.740Z,99400.06
2022-08-10T08:29:46.496Z,99404.06
2022-08-10T08:31:21.523Z,99402.66
2022-08-10T08:32:56.873Z,99408.09
2022-08-10T08:34:30.845Z,99406.38
2022-08-10T08:36:05.576Z,99400.97
2022-08-10T08:38:32.893Z,99409.50
2022-08-10T08:39:37.300Z,99410.66
2022-08-10T08:41:36.726Z,99401.53
2022-08-10T08:43:48.194Z,99406.09
2022-08-10T08:45:31.800Z,99396.94
2022-08-10T08:48:04.798Z,99400.91
2022-08-10T08:50:08.359Z,99399.75
2022-08-10T08:52:09.714Z,99392.31
2022-08-10T08:54:04.277Z,99394.47
2022-08-10T08:56:03.922Z,99402.59
2022-08-10T08:57:50.080Z,99402.06
2022-08-10T08:59:38.864Z,99404.63
2022-08-10T09:01:40.549Z,99408.91
2022-08-10T09:03:53.896Z,99389.50
2022-08-10T09:05:59.330Z,99390.28
2022-08-10T09:08:12.515Z,99395.53
2022-08-10T09:10:04.863Z,99387.38
2022-08-10T09:11:55.980Z,99393.19
2022-08-10T09:13:33.904Z,99396.59
2022-08-10T09:15:40.776Z,99397.41
2022-08-10T09:17:17.433Z,99391.13
2022-08-10T09:18:57.346Z,99392.13
2022-08-10T09:20:36.478Z,99392.97
2022-08-10T09:22:19.467Z,99381.75
2022-08-10T09:24:04.662Z,99382.25
2022-08-10T09:25:45.865Z,99385.25
2022-08-10T09:27:27.731Z,99391.06
2022-08-10T09:29:11.808Z,99392.28
2022-08-10T09:31:21.029Z,99384.50
2022-08-10T09:36:15.357Z,99383.28
2022-08-10T09:36:19.619Z,99387.22
2022-08-10T09:37:00.952Z,99382.09
2022-08-10T09:38:46.516Z,99388.09
2022-08-10T09:41:02.256Z,99390.13
2022-08-10T09:42:33.944Z,99379.56
2022-08-10T09:44:16.205Z,99382.75
2022-08-10T09:45:59.921Z,99388.34
2022-08-10T09:48:02.055Z,99377.69
2022-08-10T09:49:54.775Z,99378.19
2022-08-10T09:51:46.318Z,99387.06
2022-08-10T09:53:32.585Z,99387.41
2022-08-10T09:55:14.547Z,99389.78
2022-08-10T09:57:03.118Z,99384.69
2022-08-10T09:59:26.960Z,99382.66
2022-08-10T10:00:57.217Z,99388.06
2022-08-10T10:02:39.301Z,99382.44
2022-08-10T10:04:23.222Z,99388.75
2022-08-10T10:06:05.970Z,99382.56
2022-08-10T10:07:52.686Z,99387.69
2022-08-10T10:09:33.361Z,99383.94
2022-08-10T10:11:16.602Z,99379.88
2022-08-10T10:12:56.299Z,99371.72
2022-08-10T10:14:57.837Z,99372.91
2022-08-10T10:16:54.573Z,99372.94
2022-08-10T10:18:42.893Z,99372.13
2022-08-10T10:20:24.044Z,99373.28
2022-08-10T10:22:13.717Z,99380.13
2022-08-10T10:24:21.375Z,99370.38
2022-08-10T10:26:03.593Z,99374.66
2022-08-10T10:27:48.514Z,99372.38
2022-08-10T10:29:57.928Z,99380.56
2022-08-10T10:31:31.927Z,99378.47
2022-08-10T10:33:14.581Z,99366.94
2022-08-10T10:34:57.693Z,99372.06
2022-08-10T10:36:31.887Z,99378.22
2022-08-10T10:38:10.501Z,99371.44
2022-08-10T10:39:47.907Z,99360.72
2022-08-10T10:41:55.912Z,99363.59
2022-08-10T10:43:42.236Z,99354.72
2022-08-10T10:45:20.476Z,99355.59
2022-08-10T10:47:00.345Z,99347.63
2022-08-10T10:48:44.682Z,99348.78
2022-08-10T10:50:24.017Z,99356.44
2022-08-10T10:52:06.138Z,99348.97
2022-08-10T10:53:47.486Z,99357.81
2022-08-10T10:55:27.279Z,99353.72
2022-08-10T10:57:10.770Z,99341.47
2022-08-10T10:58:54.370Z,99345.88
2022-08-10T11:00:35.974Z,99357.09
2022-08-10T11:02:23.099Z,99342.84
2022-08-10T11:04:14.506Z,99337.03
2022-08-10T11:05:56.367Z,99348.63
2022-08-10T11:07:35.838Z,99337.38
2022-08-10T11:10:04.799Z,99341.78
2022-08-10T11:12:00.759Z,99338.00
2022-08-10T11:14:27.236Z,99323.25
2022-08-10T11:15:36.466Z,99327.47
2022-08-10T11:17:23.787Z,99315.16
2022-08-10T11:19:04.699Z,99321.16
2022-08-10T11:20:44.399Z,99303.66
2022-08-10T11:22:29.824Z,99302.03
2022-08-10T11:24:47.380Z,99309.81
2022-08-10T11:26:20.017Z,99305.66
2022-08-10T11:28:02.089Z,99305.63
2022-08-10T11:29:49.572Z,99311.00
2022-08-10T11:31:35.031Z,99301.72
2022-08-10T11:33:30.992Z,99308.13
2022-08-10T11:35:18.906Z,99278.41
2022-08-10T11:37:01.509Z,99287.53
2022-08-10T11:39:03.949Z,99287.97
2022-08-10T11:40:41.998Z,99303.34
2022-08-10T11:42:31.647Z,99296.19
2022-08-10T11:44:22.672Z,99284.16
2022-08-10T11:46:07.699Z,99291.88
2022-08-10T11:47:48.521Z,99292.59
2022-08-10T11:49:32.273Z,99290.53
2022-08-10T11:51:12.962Z,99284.03
2022-08-10T11:52:55.129Z,99280.59
2022-08-10T11:54:36.550Z,99279.56
2022-08-10T11:56:13.885Z,99274.94
2022-08-10T11:57:53.374Z,99281.50
2022-08-10T11:59:58.808Z,99272.31
2022-08-10T12:01:34.350Z,99265.50
2022-08-10T12:03:09.861Z,99252.63
2022-08-10T12:04:49.126Z,99255.28
2022-08-10T12:06:52.237Z,99261.22
2022-08-10T12:10:06.980Z,99258.06
2022-08-10T12:10:15.438Z,99254.94
2022-08-10T12:11:50.752Z,99259.38
2022-08-10T12:13:30.219Z,99241.66
2022-08-10T12:15:08.306Z,99244.03
2022-08-10T12:16:44.557Z,99249.13
2022-08-10T12:18:28.526Z,99236.28
2022-08-10T12:20:10.009Z,99228.66
2022-08-10T12:21:48.180Z,99224.66
2022-08-10T12:23:25.299Z,99226.66
2022-08-10T12:25:04.286Z,99223.78
2022-08-10T12:26:43.663Z,99230.34
2022-08-10T12:28:33.233Z,99228.44
2022-08-10T12:30:21.451Z,99220.03
2022-08-10T12:32:00.637Z,99223.28
2022-08-10T12:34:02.060Z,99224.78
2022-08-10T12:35:41.930Z,99212.00
2022-08-10T12:37:25.588Z,99222.72
2022-08-10T12:39:05.446Z,99225.47
2022-08-10T12:40:45.801Z,99224.16
2022-08-10T12:42:36.943Z,99224.88
2022-08-10T12:44:19.362Z,99222.47
2022-08-10T12:46:06.292Z,99219.19
2022-08-10T12:47:46.265Z,99205.19
2022-08-10T12:49:27.499Z,99205.44
2022-08-10T12:51:11.131Z,99203.88
2022-08-10T12:52:53.455Z,99203.88
2022-08-10T12:54:33.039Z,99210.41
2022-08-10T12:56:08.670Z,99206.00
2022-08-10T12:57:44.409Z,99204.97
2022-08-10T12:59:19.851Z,99201.91
2022-08-10T13:01:15.108Z,99188.81
2022-08-10T13:02:50.497Z,99193.31
2022-08-10T13:04:30.082Z,99189.56
2022-08-10T13:06:08.259Z,99192.25
2022-08-10T13:08:24.346Z,99188.81
2022-08-10T13:09:55.495Z,99183.19
2022-08-10T13:12:34.264Z,99178.53
2022-08-10T13:13:28.954Z,99182.94
2022-08-10T13:15:45.946Z,99185.06
2022-08-10T13:17:09.369Z,99184.13
2022-08-10T13:18:47.073Z,99183.72
2022-08-10T13:20:26.065Z,99180.81
2022-08-10T13:22:04.111Z,99192.09
2022-08-10T13:23:42.647Z,99189.75
2022-08-10T13:25:39.299Z,99178.31
2022-08-10T13:27:25.729Z,99190.94
2022-08-10T13:29:02.656Z,99183.72
2022-08-10T13:30:50.746Z,99190.66
2022-08-10T13:32:27.570Z,99185.16
2022-08-10T13:34:43.303Z,99187.16
2022-08-10T13:36:02.733Z,99182.19
2022-08-10T13:37:43.907Z,99173.91
2022-08-10T13:39:21.582Z,99192.19
2022-08-10T13:40:56.812Z,99188.13
2022-08-10T13:42:35.123Z,99183.38
2022-08-10T13:44:10.915Z,99189.00
2022-08-10T13:45:49.904Z,99184.13
2022-08-10T13:47:32.292Z,99183.84
2022-08-10T13:49:22.631Z,99177.69
2022-08-10T13:51:00.013Z,99182.16
2022-08-10T13:52:34.040Z,99182.97
2022-08-10T13:54:11.339Z,99182.97
2022-08-10T13:55:54.770Z,99190.97
2022-08-10T13:57:31.233Z,99181.28
2022-08-10T13:59:09.876Z,99190.97
2022-08-10T14:00:45.062Z,99180.75
2022-08-10T14:02:26.572Z,99173.78
2022-08-10T14:04:02.307Z,99173.28
2022-08-10T14:05:38.766Z,99174.63
2022-08-10T14:07:14.286Z,99174.25
2022-08-10T14:08:50.809Z,99164.69
2022-08-10T14:11:08.441Z,99169.09
2022-08-10T14:12:32.047Z,99154.63
2022-08-10T14:14:15.411Z,99169.78
2022-08-10T14:15:50.119Z,99164.69
2022-08-10T14:17:26.892Z,99149.41
2022-08-10T14:19:04.601Z,99170.13
2022-08-10T14:20:40.032Z,99160.25
2022-08-10T14:22:19.692Z,99160.44
2022-08-10T14:24:20.210Z,99161.06
2022-08-10T14:26:03.087Z,99158.47
2022-08-10T14:28:03.515Z,99161.81
2022-08-10T14:29:43.958Z,99157.00
2022-08-10T14:31:22.246Z,99160.59
2022-08-10T14:32:57.894Z,99158.88
2022-08-10T14:36:15.251Z,99160.47
2022-08-10T14:36:33.482Z,99164.44
2022-08-10T14:38:13.183Z,99160.09
2022-08-10T14:39:49.748Z,99181.41
2022-08-10T14:42:01.354Z,99178.91
2022-08-10T14:43:29.191Z,99172.81
2022-08-10T14:45:12.720Z,99173.63
2022-08-10T14:46:51.571Z,99172.25
2022-08-10T14:48:31.847Z,99178.84
2022-08-10T14:50:07.678Z,99174.38
2022-08-10T14:51:45.376Z,99185.28
2022-08-10T14:53:21.214Z,99170.88
2022-08-10T14:55:05.674Z,99171.25
2022-08-10T14:56:55.582Z,99173.97
2022-08-10T14:58:33.005Z,99178.72
2022-08-10T15:00:21.048Z,99164.47
2022-08-10T15:02:40.748Z,99178.81
2022-08-10T15:04:03.312Z,99186.03
2022-08-10T15:05:39.682Z,99183.69
2022-08-10T15:07:24.100Z,99182.69
2022-08-10T15:09:05.681Z,99189.38
2022-08-10T15:10:51.149Z,99179.97
2022-08-10T15:12:33.282Z,99178.94
2022-08-10T15:14:20.067Z,99188.50
2022-08-10T15:16:13.540Z,99179.28
2022-08-10T15:17:52.908Z,99184.75
2022-08-10T15:20:00.844Z,99168.03
2022-08-10T15:21:42.885Z,99174.34
2022-08-10T15:23:29.756Z,99173.84
2022-08-10T15:25:05.440Z,99171.50
2022-08-10T15:26:39.425Z,99182.78
2022-08-10T15:28:30.611Z,99174.25
2022-08-10T15:30:20.518Z,99183.81
2022-08-10T15:32:12.250Z,99175.47
2022-08-10T15:34:06.248Z,99167.34
2022-08-10T15:35:58.399Z,99169.22
2022-08-10T15:37:39.575Z,99182.19
2022-08-10T15:40:24.762Z,99170.41
2022-08-10T15:41:16.408Z,99179.94
2022-08-10T15:42:58.286Z,99179.41
2022-08-10T15:44:41.418Z,99181.13
2022-08-10T15:46:18.373Z,99179.72
2022-08-10T15:48:01.106Z,99183.81
2022-08-10T15:49:45.952Z,99187.41
2022-08-10T15:51:27.990Z,99190.94
2022-08-10T15:53:09.518Z,99185.50
2022-08-10T15:54:58.029Z,99182.78
2022-08-10T15:56:36.715Z,99189.25
2022-08-10T15:58:14.366Z,99188.16
2022-08-10T15:59:55.216Z,99187.78
2022-08-10T16:02:13.897Z,99191.03
2022-08-10T16:03:36.989Z,99177.75
2022-08-10T16:05:16.988Z,99190.63
2022-08-10T16:06:59.664Z,99198.56
2022-08-10T16:08:56.387Z,99197.84
2022-08-10T16:10:53.608Z,99203.03
2022-08-10T16:12:34.061Z,99196.03
2022-08-10T16:14:11.775Z,99197.03
2022-08-10T16:15:53.580Z,99203.47
2022-08-10T16:17:28.181Z,99194.63
2022-08-10T16:19:04.634Z,99191.75
2022-08-10T16:20:59.309Z,99202.41
2022-08-10T16:22:37.085Z,99211.19
2022-08-10T16:24:16.363Z,99214.94
2022-08-10T16:26:00.489Z,99210.19
2022-08-10T16:27:38.331Z,99213.09
2022-08-10T16:29:14.881Z,99215.81
2022-08-10T16:30:52.948Z,99217.97
2022-08-10T16:32:28.222Z,99212.53
2022-08-10T16:34:04.962Z,99207.09
2022-08-10T16:35:39.645Z,99212.53
2022-08-10T16:37:15.533Z,99218.66
2022-08-10T16:38:53.046Z,99216.28
2022-08-10T16:40:28.177Z,99212.31
2022-08-10T16:42:06.020Z,99221.25
2022-08-10T16:43:41.091Z,99216.13
2022-08-10T16:45:20.016Z,99218.19
2022-08-10T16:46:55.135Z,99222.84
2022-08-10T16:48:49.542Z,99217.56
2022-08-10T16:50:28.575Z,99217.03
2022-08-10T16:52:02.982Z,99216.72
2022-08-10T16:53:43.256Z,99221.72
2022-08-10T16:55:48.375Z,99221.53
2022-08-10T16:57:19.015Z,99224.09
2022-08-10T16:58:56.792Z,99228.88
2022-08-10T17:00:31.516Z,99221.22
2022-08-10T17:02:08.494Z,99225.47
2022-08-10T17:04:05.555Z,99218.50
2022-08-10T17:06:07.363Z,99222.91
2022-08-10T17:07:36.893Z,99227.47
2022-08-10T17:09:18.868Z,99226.44
2022-08-10T17:10:55.177Z,99225.00
2022-08-10T17:12:31.780Z,99230.22
2022-08-10T17:14:09.356Z,99235.13
2022-08-10T17:15:52.220Z,99233.06
2022-08-10T17:17:31.064Z,99237.97
2022-08-10T17:19:13.193Z,99244.31
2022-08-10T17:20:46.650Z,99250.59
2022-08-10T17:22:22.583Z,99238.81
2022-08-10T17:23:59.267Z,99257.50
2022-08-10T17:25:46.111Z,99252.22
2022-08-10T17:28:13.700Z,99259.97
2022-08-10T17:29:57.139Z,99251.28
2022-08-10T17:31:24.045Z,99263.28
2022-08-10T17:33:16.891Z,99263.00
2022-08-10T17:34:57.196Z,99272.97
2022-08-10T17:36:36.292Z,99265.63
2022-08-10T17:38:12.106Z,99271.03
2022-08-10T17:39:54.231Z,99273.00
2022-08-10T17:41:32.583Z,99276.66
2022-08-10T17:43:05.981Z,99281.66
2022-08-10T17:44:42.087Z,99283.38
2022-08-10T17:46:17.133Z,99275.94
2022-08-10T17:47:52.442Z,99293.22
2022-08-10T17:49:27.620Z,99286.25
2022-08-10T17:51:02.479Z,99289.09
2022-08-10T17:52:37.060Z,99283.38
2022-08-10T17:54:21.274Z,99303.97
2022-08-10T17:55:56.724Z,99282.81
2022-08-10T17:57:36.276Z,99296.50
2022-08-10T17:59:17.278Z,99294.00
2022-08-10T18:00:52.662Z,99295.59
2022-08-10T18:02:28.729Z,99298.84
2022-08-10T18:04:06.491Z,99301.53
2022-08-10T18:05:41.372Z,99287.47
2022-08-10T18:07:16.276Z,99302.84
2022-08-10T18:08:53.972Z,99298.84
2022-08-10T18:10:27.774Z,99304.25
2022-08-10T18:12:10.236Z,99306.25
2022-08-10T18:13:56.715Z,99301.84
2022-08-10T18:15:33.980Z,99302.56
2022-08-10T18:17:13.359Z,99305.41
2022-08-10T18:18:58.398Z,99306.25
2022-08-10T18:20:36.798Z,99301.97
2022-08-10T18:22:13.658Z,99320.50
2022-08-10T18:23:52.687Z,99313.94
2022-08-10T18:25:32.197Z,99317.66
2022-08-10T18:27:07.430Z,99317.94
2022-08-10T18:28:42.431Z,99314.56
2022-08-10T18:30:16.617Z,99320.81
2022-08-10T18:31:55.700Z,99301.75
2022-08-10T18:33:32.466Z,99317.09
2022-08-10T18:35:08.585Z,99316.09
2022-08-10T18:36:43.664Z,99317.09
2022-08-10T18:38:20.362Z,99326.22
2022-08-10T18:39:58.336Z,99320.81
2022-08-10T18:41:35.819Z,99318.38
2022-08-10T18:44:06.109Z,99317.69
2022-08-10T18:45:10.392Z,99323.41
2022-08-10T18:46:51.381Z,99317.44
2022-08-10T18:48:29.170Z,99331.16
2022-08-10T18:50:08.085Z,99306.94
2022-08-10T18:51:47.314Z,99306.13
2022-08-10T18:53:31.670Z,99324.03
2022-08-10T18:55:14.636Z,99326.88
2022-08-10T18:56:58.641Z,99320.94
2022-08-10T18:58:51.408Z,99315.41
2022-08-10T19:00:32.612Z,99330.50
2022-08-10T19:02:26.238Z,99332.06
2022-08-10T19:04:21.429Z,99327.53
2022-08-10T19:06:18.077Z,99337.63
2022-08-10T19:08:11.176Z,99343.78
2022-08-10T19:09:55.785Z,99333.22
2022-08-10T19:11:41.612Z,99340.91
2022-08-10T19:13:22.159Z,99344.63
2022-08-10T19:15:02.290Z,99333.81
2022-08-10T19:16:48.934Z,99335.50
2022-08-10T19:18:32.818Z,99340.22
2022-08-10T19:20:16.241Z,99337.53
2022-08-10T19:21:57.890Z,99333.81
2022-08-10T19:23:52.878Z,99338.94
2022-08-10T19:26:39.428Z,99342.38
2022-08-10T19:27:43.420Z,99340.50
2022-08-10T19:30:10.338Z,99344.59
2022-08-10T19:31:44.045Z,99345.75
2022-08-10T19:33:29.288Z,99337.25
2022-08-10T19:35:09.425Z,99334.09
2022-08-10T19:36:52.702Z,99332.97
2022-08-10T19:38:33.495Z,99335.84
2022-08-10T19:40:44.359Z,99336.97
2022-08-10T19:42:31.386Z,99327.44
2022-08-10T19:44:13.629Z,99333.13
2022-08-10T19:46:02.699Z,99323.03
2022-08-10T19:47:42.453Z,99329.31
2022-08-10T19:49:25.292Z,99336.28
2022-08-10T19:51:04.793Z,99328.00
2022-08-10T19:52:48.401Z,99317.59
2022-08-10T19:54:30.939Z,99318.75
2022-08-10T19:56:33.159Z,99327.28
2022-08-10T19:58:17.038Z,99329.59
2022-08-10T20:00:15.223Z,99331.44